Terminal Aerodrome Forecast
Issued by NWS North Platte, NE

Home | Current Version | Previous Version | Graphics & Text | Print | Product List | Glossary Off
Versions: 1 2 3 4 5 6 7 8 9 10 11 12 13 14 15

529
FTUS43 KLBF 231118 AAC
TAFVTN
TAF AMD
KVTN 231118Z 2311/2406 31016G24KT P6SM FEW250
     FM231500 32024G33KT P6SM SKC
     FM231700 33028G40KT P6SM SKC
     FM232300 32016G25KT P6SM SCT250=

USA.gov is the U.S. government's official web portal to all federal, state and local government web resources and services.